createdAt,value
2022-10-21T00:02:15.690Z,100640.06
2022-10-21T00:04:43.318Z,100634.19
2022-10-21T00:07:10.654Z,100631.72
2022-10-21T00:09:38.844Z,100631.94
2022-10-21T00:12:06.454Z,100633.56
2022-10-21T00:14:33.804Z,100629.72
2022-10-21T00:17:01.143Z,100636.00
2022-10-21T00:19:28.731Z,100628.41
2022-10-21T00:21:56.047Z,100628.81
2022-10-21T00:24:23.392Z,100619.44
2022-10-21T00:26:51.257Z,100620.69
2022-10-21T00:29:18.588Z,100618.09
2022-10-21T00:31:45.975Z,100612.88
2022-10-21T00:34:13.554Z,100616.72
2022-10-21T00:36:40.860Z,100621.84
2022-10-21T00:39:08.173Z,100611.59
2022-10-21T00:41:35.765Z,100609.66
2022-10-21T00:44:06.121Z,100604.41
2022-10-21T00:46:52.711Z,100601.38
2022-10-21T00:49:38.451Z,100599.78
2022-10-21T00:52:09.321Z,100598.72
2022-10-21T00:54:38.133Z,100595.31
2022-10-21T00:57:05.812Z,100591.25
2022-10-21T00:59:40.591Z,100592.63
2022-10-21T01:02:08.361Z,100599.81
2022-10-21T01:04:35.936Z,100597.16
2022-10-21T01:07:03.374Z,100585.75
2022-10-21T01:09:31.102Z,100592.06
2022-10-21T01:11:58.918Z,100579.16
2022-10-21T01:14:39.822Z,100575.19
2022-10-21T01:17:44.623Z,100575.28
2022-10-21T01:20:23.950Z,100583.38
2022-10-21T01:23:09.911Z,100571.63
2022-10-21T01:26:14.953Z,100577.22
2022-10-21T01:29:36.026Z,100579.75
2022-10-21T01:32:06.214Z,100575.44
2022-10-21T01:34:43.845Z,100576.34
2022-10-21T01:37:20.489Z,100558.91
2022-10-21T01:39:52.307Z,100564.81
2022-10-21T01:42:42.611Z,100552.72
2022-10-21T01:45:20.659Z,100555.81
2022-10-21T01:47:51.482Z,100541.97
2022-10-21T01:50:30.440Z,100543.16
2022-10-21T01:53:01.955Z,100544.00
2022-10-21T01:55:31.730Z,100546.28
2022-10-21T01:58:06.611Z,100556.16
2022-10-21T02:00:35.893Z,100560.84
2022-10-21T02:03:07.849Z,100556.03
2022-10-21T02:05:35.315Z,100559.41
2022-10-21T02:08:03.751Z,100550.78
2022-10-21T02:10:35.940Z,100549.06
2022-10-21T02:13:05.551Z,100555.47
2022-10-21T02:15:33.662Z,100553.88
2022-10-21T02:18:24.512Z,100554.69
2022-10-21T02:20:58.078Z,100572.09
2022-10-21T02:23:59.388Z,100564.88
2022-10-21T02:26:28.121Z,100557.53
2022-10-21T02:28:56.261Z,100559.94
2022-10-21T02:31:54.552Z,100559.22
2022-10-21T02:34:37.336Z,100559.37
2022-10-21T02:37:13.283Z,100564.56
2022-10-21T02:39:47.534Z,100570.56
2022-10-21T02:42:20.126Z,100558.28
2022-10-21T02:44:47.719Z,100547.50
2022-10-21T02:47:16.404Z,100549.37
2022-10-21T02:49:44.576Z,100553.50
2022-10-21T02:52:12.263Z,100558.63
2022-10-21T02:54:39.603Z,100552.00
2022-10-21T02:57:06.928Z,100546.59
2022-10-21T02:59:34.497Z,100545.22
2022-10-21T03:02:01.828Z,100557.31
2022-10-21T03:04:29.169Z,100555.84
2022-10-21T03:06:56.726Z,100550.56
2022-10-21T03:09:24.036Z,100554.94
2022-10-21T03:11:51.363Z,100560.81
2022-10-21T03:14:19.064Z,100557.81
2022-10-21T03:16:46.434Z,100558.09
2022-10-21T03:19:13.878Z,100552.00
2022-10-21T03:21:41.505Z,100550.25
2022-10-21T03:24:15.281Z,100558.50
2022-10-21T03:26:52.847Z,100550.09
2022-10-21T03:29:20.180Z,100545.84
2022-10-21T03:31:47.610Z,100533.75
2022-10-21T03:34:15.204Z,100523.28
2022-10-21T03:36:42.522Z,100526.03
2022-10-21T03:39:11.427Z,100529.19
2022-10-21T03:41:39.214Z,100537.56
2022-10-21T03:44:06.691Z,100528.06
2022-10-21T03:46:34.007Z,100528.72
2022-10-21T03:49:04.466Z,100527.44
2022-10-21T03:51:34.117Z,100525.16
2022-10-21T03:54:01.733Z,100516.88
2022-10-21T03:56:29.138Z,100516.22
2022-10-21T03:58:58.758Z,100512.19
2022-10-21T04:01:27.196Z,100506.69
2022-10-21T04:03:54.836Z,100514.50
2022-10-21T04:06:22.159Z,100501.34
2022-10-21T04:08:49.636Z,100504.44
2022-10-21T04:11:17.277Z,100505.50
2022-10-21T04:13:44.807Z,100489.31
2022-10-21T04:16:15.812Z,100503.72
2022-10-21T04:18:43.362Z,100501.28
2022-10-21T04:21:11.163Z,100499.41
2022-10-21T04:23:38.690Z,100497.28
2022-10-21T04:26:07.086Z,100499.50
2022-10-21T04:28:34.890Z,100501.56
2022-10-21T04:31:02.727Z,100505.34
2022-10-21T04:33:30.313Z,100501.28
2022-10-21T04:35:59.097Z,100494.31
2022-10-21T04:38:26.975Z,100479.66
2022-10-21T04:41:02.521Z,100474.19
2022-10-21T04:43:30.130Z,100472.69
2022-10-21T04:45:57.717Z,100472.53
2022-10-21T04:48:25.141Z,100469.25
2022-10-21T04:50:53.328Z,100463.00
2022-10-21T04:53:21.579Z,100463.06
2022-10-21T04:55:52.995Z,100455.47
2022-10-21T04:58:22.083Z,100469.31
2022-10-21T05:00:50.759Z,100463.91
2022-10-21T05:03:18.895Z,100460.63
2022-10-21T05:05:49.939Z,100462.84
2022-10-21T05:08:17.774Z,100473.22
2022-10-21T05:10:45.319Z,100466.81
2022-10-21T05:13:13.214Z,100466.81
2022-10-21T05:15:40.679Z,100468.69
2022-10-21T05:18:08.007Z,100463.06
2022-10-21T05:20:35.614Z,100456.66
2022-10-21T05:23:02.997Z,100460.19
2022-10-21T05:25:33.311Z,100460.16
2022-10-21T05:28:02.023Z,100468.69
2022-10-21T05:30:29.406Z,100474.09
2022-10-21T05:32:56.791Z,100470.94
2022-10-21T05:35:24.398Z,100466.63
2022-10-21T05:37:51.727Z,100474.34
2022-10-21T05:40:19.064Z,100476.78
2022-10-21T05:42:47.913Z,100492.56
2022-10-21T05:45:15.227Z,100472.66
2022-10-21T05:47:42.721Z,100459.78
2022-10-21T05:50:11.840Z,100458.56
2022-10-21T05:52:40.361Z,100438.16
2022-10-21T05:55:08.602Z,100445.03
2022-10-21T05:57:37.648Z,100456.41
2022-10-21T06:00:06.435Z,100468.25
2022-10-21T06:02:33.771Z,100488.84
2022-10-21T06:05:01.341Z,100493.84
2022-10-21T06:07:28.785Z,100498.81
2022-10-21T06:09:56.130Z,100498.75
2022-10-21T06:12:23.764Z,100503.38
2022-10-21T06:14:51.080Z,100510.44
2022-10-21T06:17:18.416Z,100515.84
2022-10-21T06:19:48.755Z,100511.69
2022-10-21T06:22:18.355Z,100494.97
2022-10-21T06:24:46.913Z,100508.06
2022-10-21T06:27:14.234Z,100503.38
2022-10-21T06:29:41.601Z,100510.38
2022-10-21T06:32:09.245Z,100521.66
2022-10-21T06:34:36.578Z,100529.56
2022-10-21T06:37:03.980Z,100542.37
2022-10-21T06:39:31.581Z,100531.22
2022-10-21T06:41:58.912Z,100524.34
2022-10-21T06:44:26.723Z,100511.06
2022-10-21T06:46:54.351Z,100507.56
2022-10-21T06:49:21.699Z,100514.09
2022-10-21T06:51:49.033Z,100503.81
2022-10-21T06:54:16.684Z,100505.50
2022-10-21T06:56:44.028Z,100492.03
2022-10-21T06:59:11.380Z,100504.06
2022-10-21T07:01:59.099Z,100496.56
2022-10-21T07:04:28.397Z,100502.94
2022-10-21T07:06:57.065Z,100496.03
2022-10-21T07:09:43.255Z,100497.09
2022-10-21T07:12:11.089Z,100502.34
2022-10-21T07:14:38.423Z,100497.00
2022-10-21T07:17:05.781Z,100498.16
2022-10-21T07:19:33.694Z,100499.19
2022-10-21T07:22:01.334Z,100498.66
2022-10-21T07:24:28.737Z,100500.47
2022-10-21T07:26:56.381Z,100503.59
2022-10-21T07:29:23.764Z,100508.13
2022-10-21T07:31:51.317Z,100508.34
2022-10-21T07:34:19.749Z,100507.34
2022-10-21T07:36:49.525Z,100517.34
2022-10-21T07:39:17.690Z,100527.78
2022-10-21T07:41:50.592Z,100507.16
2022-10-21T07:44:18.764Z,100509.22
2022-10-21T07:46:47.372Z,100505.53
2022-10-21T07:49:15.751Z,100502.09
2022-10-21T07:51:43.566Z,100497.87
2022-10-21T07:54:12.336Z,100488.53
2022-10-21T07:56:42.543Z,100493.31
2022-10-21T07:59:13.146Z,100489.62
2022-10-21T08:01:45.893Z,100473.78
2022-10-21T08:04:16.795Z,100472.53
2022-10-21T08:06:45.485Z,100465.28
2022-10-21T08:09:13.867Z,100465.78
2022-10-21T08:11:42.008Z,100470.63
2022-10-21T08:14:10.061Z,100466.00
2022-10-21T08:16:37.821Z,100468.00
2022-10-21T08:19:05.847Z,100459.12
2022-10-21T08:21:33.311Z,100460.69
2022-10-21T08:24:04.125Z,100453.50
2022-10-21T08:26:31.783Z,100461.81
2022-10-21T08:31:31.744Z,100456.53
2022-10-21T08:33:59.425Z,100453.53
2022-10-21T08:36:26.959Z,100449.50
2022-10-21T08:38:55.121Z,100451.50
2022-10-21T08:41:31.254Z,100441.03
2022-10-21T08:44:28.171Z,100435.34
2022-10-21T08:47:06.049Z,100429.94
2022-10-21T08:49:53.859Z,100437.00
2022-10-21T08:52:31.702Z,100433.50
2022-10-21T08:55:05.096Z,100421.19
2022-10-21T08:57:34.853Z,100431.22
2022-10-21T09:00:11.518Z,100422.94
2022-10-21T09:02:47.538Z,100421.59
2022-10-21T09:05:18.202Z,100411.34
2022-10-21T09:08:06.573Z,100402.38
2022-10-21T09:10:46.533Z,100418.59
2022-10-21T09:13:32.487Z,100413.87
2022-10-21T09:16:14.454Z,100407.09
2022-10-21T09:19:02.126Z,100403.75
2022-10-21T09:22:10.839Z,100402.03
2022-10-21T09:24:52.799Z,100398.75
2022-10-21T09:27:27.064Z,100408.81
2022-10-21T09:30:06.937Z,100395.22
2022-10-21T09:32:37.852Z,100403.31
2022-10-21T09:35:12.343Z,100393.59
2022-10-21T09:37:42.816Z,100389.59
2022-10-21T09:40:17.584Z,100379.41
2022-10-21T09:42:48.143Z,100375.13
2022-10-21T09:45:24.139Z,100370.69
2022-10-21T09:47:56.171Z,100367.56
2022-10-21T09:50:23.780Z,100362.53
2022-10-21T09:53:08.222Z,100360.50
2022-10-21T09:55:35.862Z,100353.22
2022-10-21T09:58:04.288Z,100350.53
2022-10-21T10:00:44.475Z,100358.97
2022-10-21T10:03:12.189Z,100353.03
2022-10-21T10:05:48.050Z,100353.50
2022-10-21T10:08:29.779Z,100348.47
2022-10-21T10:11:18.502Z,100344.19
2022-10-21T10:13:50.814Z,100336.97
2022-10-21T10:16:22.852Z,100331.91
2022-10-21T10:18:53.676Z,100322.63
2022-10-21T10:21:22.301Z,100322.75
2022-10-21T10:23:55.059Z,100310.16
2022-10-21T10:26:32.219Z,100312.59
2022-10-21T10:29:15.293Z,100310.44
2022-10-21T10:31:55.625Z,100297.50
2022-10-21T10:34:32.238Z,100302.59
2022-10-21T10:37:01.739Z,100297.84
2022-10-21T10:39:31.485Z,100286.66
2022-10-21T10:41:58.938Z,100294.13
2022-10-21T10:44:31.550Z,100286.25
2022-10-21T10:47:01.139Z,100281.44
2022-10-21T10:49:35.557Z,100275.63
2022-10-21T10:52:07.611Z,100273.41
2022-10-21T10:54:35.313Z,100263.13
2022-10-21T10:57:05.725Z,100261.34
2022-10-21T10:59:49.193Z,100252.19
2022-10-21T11:02:27.414Z,100237.22
2022-10-21T11:05:07.951Z,100246.19
2022-10-21T11:07:48.270Z,100243.44
2022-10-21T11:10:30.747Z,100243.75
2022-10-21T11:13:00.650Z,100241.38
2022-10-21T11:15:40.153Z,100244.00
2022-10-21T11:18:24.964Z,100244.56
2022-10-21T11:21:07.498Z,100230.84
2022-10-21T11:23:52.309Z,100231.34
2022-10-21T11:26:59.639Z,100228.97
2022-10-21T11:29:35.779Z,100220.88
2022-10-21T11:32:39.141Z,100212.84
2022-10-21T11:35:09.342Z,100207.91
2022-10-21T11:38:13.721Z,100210.53
2022-10-21T11:40:54.222Z,100197.41
2022-10-21T11:43:56.671Z,100176.13
2022-10-21T11:46:49.342Z,100180.25
2022-10-21T11:49:45.928Z,100188.88
2022-10-21T11:52:25.671Z,100190.78
2022-10-21T11:55:14.686Z,100185.63
2022-10-21T11:58:04.512Z,100174.56
2022-10-21T12:00:50.188Z,100179.59
2022-10-21T12:03:44.255Z,100161.81
2022-10-21T12:06:27.875Z,100147.47
2022-10-21T12:09:06.031Z,100153.50
2022-10-21T12:11:38.098Z,100168.16
2022-10-21T12:14:31.305Z,100159.63
2022-10-21T12:17:01.799Z,100147.09
2022-10-21T12:19:29.423Z,100146.25
2022-10-21T12:21:57.104Z,100155.75
2022-10-21T12:24:32.219Z,100156.91
2022-10-21T12:27:13.685Z,100151.59
2022-10-21T12:30:05.468Z,100134.59
2022-10-21T12:32:49.963Z,100140.97
2022-10-21T12:35:26.246Z,100135.22
2022-10-21T12:37:53.877Z,100134.00
2022-10-21T12:40:27.317Z,100138.50
2022-10-21T12:43:03.569Z,100127.75
2022-10-21T12:45:35.943Z,100127.69
2022-10-21T12:48:32.048Z,100120.34
2022-10-21T12:51:03.189Z,100118.09
2022-10-21T12:53:36.454Z,100120.56
2022-10-21T12:56:05.014Z,100114.34
2022-10-21T12:58:37.807Z,100110.56
2022-10-21T13:01:06.985Z,100108.88
2022-10-21T13:03:55.289Z,100106.81
2022-10-21T13:06:51.290Z,100112.25
2022-10-21T13:09:42.195Z,100109.44
2022-10-21T13:12:09.401Z,100114.38
2022-10-21T13:14:48.443Z,100108.28
2022-10-21T13:17:21.792Z,100101.81
2022-10-21T13:19:50.913Z,100099.88
2022-10-21T13:22:36.130Z,100098.00
2022-10-21T13:25:16.214Z,100084.91
2022-10-21T13:27:45.962Z,100088.59
2022-10-21T13:30:48.776Z,100084.47
2022-10-21T13:33:21.249Z,100084.06
2022-10-21T13:35:51.074Z,100071.69
2022-10-21T13:38:24.253Z,100087.19
2022-10-21T13:40:54.056Z,100079.66
2022-10-21T13:43:45.686Z,100073.47
2022-10-21T13:46:20.756Z,100071.66
2022-10-21T13:48:48.463Z,100067.25
2022-10-21T13:51:28.147Z,100069.06
2022-10-21T13:54:15.308Z,100064.97
2022-10-21T13:56:43.415Z,100067.87
2022-10-21T13:59:27.001Z,100055.28
2022-10-21T14:01:56.640Z,100050.53
2022-10-21T14:04:39.642Z,100051.50
2022-10-21T14:07:12.197Z,100042.75
2022-10-21T14:09:44.086Z,100044.91
2022-10-21T14:12:32.570Z,100054.13
2022-10-21T14:15:14.024Z,100050.59
2022-10-21T14:17:44.438Z,100051.09
2022-10-21T14:20:20.157Z,100044.44
2022-10-21T14:22:49.170Z,100038.47
2022-10-21T14:25:18.010Z,100041.47
2022-10-21T14:27:47.121Z,100034.72
2022-10-21T14:30:26.344Z,100031.28
2022-10-21T14:32:56.915Z,100035.22
2022-10-21T14:35:28.353Z,100036.81
2022-10-21T14:38:01.160Z,100034.06
2022-10-21T14:40:34.104Z,100036.66
2022-10-21T14:43:08.726Z,100034.97
2022-10-21T14:45:38.817Z,100033.13
2022-10-21T14:48:16.682Z,100033.94
2022-10-21T14:50:53.640Z,100030.81
2022-10-21T14:53:23.087Z,100028.19
2022-10-21T14:55:54.692Z,100025.97
2022-10-21T14:58:52.506Z,100031.00
2022-10-21T15:01:21.918Z,100029.22
2022-10-21T15:03:56.574Z,100027.44
2022-10-21T15:06:28.551Z,100028.19
2022-10-21T15:08:56.139Z,100026.31
2022-10-21T15:11:32.827Z,100019.66
2022-10-21T15:14:18.453Z,100007.00
2022-10-21T15:16:55.763Z,100012.09
2022-10-21T15:19:27.546Z,100004.00
2022-10-21T15:22:00.315Z,99993.25
2022-10-21T15:24:33.672Z,100001.94
2022-10-21T15:27:01.747Z,100006.41
2022-10-21T15:29:35.311Z,100007.59
2022-10-21T15:32:04.473Z,100009.25
2022-10-21T15:34:32.354Z,100010.69
2022-10-21T15:36:59.685Z,100004.72
2022-10-21T15:39:28.276Z,100000.31
2022-10-21T15:41:57.552Z,100004.56
2022-10-21T15:44:31.029Z,100003.59
2022-10-21T15:47:05.594Z,100005.47
2022-10-21T15:49:35.205Z,100001.59
2022-10-21T15:52:02.845Z,99995.50
2022-10-21T15:54:30.542Z,100001.72
2022-10-21T15:56:58.550Z,99997.56
2022-10-21T15:59:31.080Z,99992.97
2022-10-21T16:01:58.797Z,99991.66
2022-10-21T16:04:26.741Z,99999.50
2022-10-21T16:06:54.876Z,99996.38
2022-10-21T16:09:25.069Z,99999.16
2022-10-21T16:11:59.436Z,100003.00
2022-10-21T16:14:30.093Z,100006.72
2022-10-21T16:17:00.375Z,100012.66
2022-10-21T16:19:28.437Z,100012.50
2022-10-21T16:21:55.971Z,100010.06
2022-10-21T16:24:23.935Z,100013.84
2022-10-21T16:26:51.339Z,100024.50
2022-10-21T16:29:23.652Z,100017.31
2022-10-21T16:31:51.955Z,100016.63
2022-10-21T16:34:19.883Z,100014.56
2022-10-21T16:36:47.237Z,100013.00
2022-10-21T16:39:19.693Z,100013.41
2022-10-21T16:41:47.410Z,100010.37
2022-10-21T16:44:15.677Z,100009.75
2022-10-21T16:46:54.644Z,100013.09
2022-10-21T16:49:27.156Z,100010.31
2022-10-21T16:51:55.230Z,100005.19
2022-10-21T16:54:23.549Z,99998.12
2022-10-21T16:56:53.363Z,100012.88
2022-10-21T16:59:23.284Z,99999.34
2022-10-21T17:01:50.660Z,100001.75
2022-10-21T17:04:18.129Z,100012.53
2022-10-21T17:06:45.804Z,100003.41
2022-10-21T17:09:13.596Z,99999.75
2022-10-21T17:11:42.501Z,100006.63
2022-10-21T17:14:15.932Z,99999.28
2022-10-21T17:16:44.499Z,100001.28
2022-10-21T17:19:13.331Z,100001.66
2022-10-21T17:21:40.706Z,100001.50
2022-10-21T17:24:08.197Z,99998.59
2022-10-21T17:26:37.102Z,100004.31
2022-10-21T17:29:04.978Z,100001.53
2022-10-21T17:31:32.757Z,100006.13
2022-10-21T17:34:06.741Z,100006.19
2022-10-21T17:36:37.801Z,99993.69
2022-10-21T17:39:06.007Z,99989.22
2022-10-21T17:41:33.617Z,99992.25
2022-10-21T17:44:01.951Z,99989.88
2022-10-21T17:46:29.719Z,99994.37
2022-10-21T17:48:58.353Z,99999.47
2022-10-21T17:51:26.069Z,99987.09
2022-10-21T17:53:54.949Z,99999.06
2022-10-21T17:56:23.449Z,100002.13
2022-10-21T17:58:52.423Z,99995.00
2022-10-21T18:01:21.065Z,99996.38
2022-10-21T18:03:49.224Z,100000.97
2022-10-21T18:06:17.054Z,99992.19
2022-10-21T18:08:45.273Z,99994.72
2022-10-21T18:11:17.270Z,99992.53
2022-10-21T18:13:45.691Z,99985.75
2022-10-21T18:16:16.183Z,99980.88
2022-10-21T18:18:44.831Z,99974.81
2022-10-21T18:21:17.447Z,99978.37
2022-10-21T18:23:48.261Z,99983.25
2022-10-21T18:26:20.087Z,99976.91
2022-10-21T18:28:57.587Z,99992.28
2022-10-21T18:31:28.525Z,99989.53
2022-10-21T18:33:57.612Z,99977.53
2022-10-21T18:36:26.924Z,99977.22
2022-10-21T18:38:55.052Z,99971.09
2022-10-21T18:41:23.287Z,99959.28
2022-10-21T18:43:53.874Z,99959.28
2022-10-21T18:46:22.718Z,99959.03
2022-10-21T18:48:53.208Z,99948.16
2022-10-21T18:51:21.712Z,99951.34
2022-10-21T18:53:52.773Z,99948.03
2022-10-21T18:56:22.813Z,99946.69
2022-10-21T18:58:50.918Z,99939.56
2022-10-21T19:01:20.046Z,99939.31
2022-10-21T19:03:52.397Z,99939.50
2022-10-21T19:06:31.482Z,99932.03
2022-10-21T19:09:02.102Z,99931.31
2022-10-21T19:11:30.087Z,99932.41
2022-10-21T19:13:58.102Z,99926.34
2022-10-21T19:16:25.807Z,99927.84
2022-10-21T19:18:55.168Z,99915.47
2022-10-21T19:21:23.810Z,99913.75
2022-10-21T19:23:52.278Z,99921.50
2022-10-21T19:26:23.098Z,99919.28
2022-10-21T19:28:51.351Z,99928.53
2022-10-21T19:31:21.735Z,99929.44
2022-10-21T19:33:49.505Z,99922.31
2022-10-21T19:36:17.689Z,99927.38
2022-10-21T19:38:45.500Z,99930.72
2022-10-21T19:41:16.635Z,99922.00
2022-10-21T19:43:45.073Z,99927.63
2022-10-21T19:46:23.448Z,99926.41
2022-10-21T19:48:54.618Z,99932.81
2022-10-21T19:51:24.095Z,99931.16
2022-10-21T19:53:52.379Z,99928.53
2022-10-21T19:56:25.485Z,99928.97
2022-10-21T19:58:55.936Z,99923.00
2022-10-21T20:01:26.443Z,99925.47
2022-10-21T20:03:55.578Z,99916.38
2022-10-21T20:06:28.485Z,99913.47
2022-10-21T20:09:01.062Z,99913.22
2022-10-21T20:11:29.754Z,99911.53
2022-10-21T20:13:57.582Z,99904.41
2022-10-21T20:16:33.869Z,99912.03
2022-10-21T20:19:02.985Z,99911.25
2022-10-21T20:21:32.605Z,99916.13
2022-10-21T20:24:00.724Z,99908.75
2022-10-21T20:26:29.399Z,99926.81
2022-10-21T20:28:57.240Z,99918.09
2022-10-21T20:31:25.008Z,99918.25
2022-10-21T20:33:52.678Z,99920.69
2022-10-21T20:36:25.855Z,99933.47
2022-10-21T20:38:55.208Z,99930.44
2022-10-21T20:41:27.037Z,99928.12
2022-10-21T20:43:55.079Z,99919.69
2022-10-21T20:46:24.708Z,99918.38
2022-10-21T20:48:53.858Z,99924.03
2022-10-21T20:51:26.950Z,99908.22
2022-10-21T20:53:59.651Z,99914.41
2022-10-21T20:56:34.785Z,99920.13
2022-10-21T20:59:03.551Z,99910.09
2022-10-21T21:01:41.745Z,99921.16
2022-10-21T21:04:14.293Z,99913.84
2022-10-21T21:06:44.397Z,99911.69
2022-10-21T21:12:03.415Z,99912.41
2022-10-21T21:14:31.988Z,99912.56
2022-10-21T21:16:59.572Z,99901.16
2022-10-21T21:19:26.930Z,99913.66
2022-10-21T21:21:54.316Z,99907.94
2022-10-21T21:24:22.022Z,99906.09
2022-10-21T21:26:49.458Z,99920.22
2022-10-21T21:29:17.825Z,99912.44
2022-10-21T21:31:45.424Z,99908.81
2022-10-21T21:34:12.773Z,99916.75
2022-10-21T21:36:40.162Z,99907.66
2022-10-21T21:39:08.170Z,99894.84
2022-10-21T21:41:36.018Z,99887.34
2022-10-21T21:44:04.346Z,99891.59
2022-10-21T21:46:32.057Z,99903.34
2022-10-21T21:49:05.235Z,99907.19
2022-10-21T21:51:35.506Z,99894.47
2022-10-21T21:54:04.343Z,99889.22
2022-10-21T21:56:31.725Z,99883.94
2022-10-21T21:58:59.333Z,99887.28
2022-10-21T22:01:29.260Z,99885.75
2022-10-21T22:03:57.429Z,99886.44
2022-10-21T22:06:27.646Z,99893.72
2022-10-21T22:08:55.558Z,99894.13
2022-10-21T22:11:25.258Z,99888.16
2022-10-21T22:13:52.647Z,99886.31
2022-10-21T22:16:22.114Z,99895.37
2022-10-21T22:18:49.814Z,99904.00
2022-10-21T22:21:18.707Z,99906.66
2022-10-21T22:23:47.444Z,99904.50
2022-10-21T22:26:16.104Z,99906.34
2022-10-21T22:28:43.632Z,99896.53
2022-10-21T22:31:13.990Z,99902.41
2022-10-21T22:36:16.642Z,99902.66
2022-10-21T22:38:45.060Z,99890.88
2022-10-21T22:41:13.139Z,99890.88
2022-10-21T22:43:40.742Z,99890.12
2022-10-21T22:46:21.977Z,99886.66
2022-10-21T22:48:56.079Z,99884.16
2022-10-21T22:51:23.672Z,99882.69
2022-10-21T22:53:55.284Z,99881.59
2022-10-21T22:56:28.005Z,99886.78
2022-10-21T22:58:55.368Z,99887.84
2022-10-21T23:01:24.113Z,99889.06
2022-10-21T23:03:51.927Z,99878.25
2022-10-21T23:06:19.312Z,99882.66
2022-10-21T23:08:46.660Z,99883.03
2022-10-21T23:11:14.894Z,99882.00
2022-10-21T23:13:56.049Z,99877.06
2022-10-21T23:16:29.792Z,99886.66
2022-10-21T23:18:57.301Z,99879.56
2022-10-21T23:21:24.675Z,99883.25
2022-10-21T23:23:52.492Z,99882.22
2022-10-21T23:26:19.851Z,99872.03
2022-10-21T23:28:47.309Z,99874.44
2022-10-21T23:31:15.001Z,99872.03
2022-10-21T23:33:42.380Z,99864.22
2022-10-21T23:36:09.795Z,99863.56
2022-10-21T23:38:37.578Z,99867.84
2022-10-21T23:41:05.053Z,99861.31
2022-10-21T23:43:32.430Z,99863.16
2022-10-21T23:46:00.119Z,99877.44
2022-10-21T23:48:27.596Z,99879.44
2022-10-21T23:50:54.990Z,99882.03
2022-10-21T23:53:22.930Z,99887.69
2022-10-21T23:55:50.250Z,99881.44
2022-10-21T23:58:17.734Z,99880.94
